sensor_id;sensor_type;location;lat;lon;timestamp;P1;durP1;ratioP1;P2;durP2;ratioP2
43114;SDS011;28727;50.068;14.452;2023-07-08T00:01:27;740.35;;;676.33;;
43114;SDS011;28727;50.068;14.452;2023-07-08T00:03:59;738.15;;;674.35;;
43114;SDS011;28727;50.068;14.452;2023-07-08T00:06:30;724.28;;;660.90;;
43114;SDS011;28727;50.068;14.452;2023-07-08T00:09:04;730.13;;;666.65;;
43114;SDS011;28727;50.068;14.452;2023-07-08T00:11:42;736.15;;;672.50;;
43114;SDS011;28727;50.068;14.452;2023-07-08T00:14:17;738.50;;;674.60;;
43114;SDS011;28727;50.068;14.452;2023-07-08T00:16:49;734.03;;;669.83;;
43114;SDS011;28727;50.068;14.452;2023-07-08T00:21:56;723.78;;;660.65;;
43114;SDS011;28727;50.068;14.452;2023-07-08T00:24:28;730.30;;;666.90;;
43114;SDS011;28727;50.068;14.452;2023-07-08T00:27:00;728.53;;;665.03;;
43114;SDS011;28727;50.068;14.452;2023-07-08T00:29:32;740.78;;;676.85;;
43114;SDS011;28727;50.068;14.452;2023-07-08T00:32:14;730.67;;;667.13;;
43114;SDS011;28727;50.068;14.452;2023-07-08T00:34:46;735.47;;;671.38;;
43114;SDS011;28727;50.068;14.452;2023-07-08T00:37:19;731.08;;;667.40;;
43114;SDS011;28727;50.068;14.452;2023-07-08T00:39:50;730.78;;;667.15;;
43114;SDS011;28727;50.068;14.452;2023-07-08T00:42:24;742.13;;;677.50;;
43114;SDS011;28727;50.068;14.452;2023-07-08T00:44:56;736.63;;;672.67;;
43114;SDS011;28727;50.068;14.452;2023-07-08T00:47:28;726.67;;;663.72;;
43114;SDS011;28727;50.068;14.452;2023-07-08T00:50:00;730.40;;;666.67;;
43114;SDS011;28727;50.068;14.452;2023-07-08T00:52:37;720.78;;;657.55;;
43114;SDS011;28727;50.068;14.452;2023-07-08T00:57:43;728.72;;;665.38;;
43114;SDS011;28727;50.068;14.452;2023-07-08T01:00:17;721.40;;;658.47;;
43114;SDS011;28727;50.068;14.452;2023-07-08T01:02:51;718.70;;;655.72;;
43114;SDS011;28727;50.068;14.452;2023-07-08T01:05:28;730.53;;;666.58;;
43114;SDS011;28727;50.068;14.452;2023-07-08T01:08:02;720.13;;;657.38;;
43114;SDS011;28727;50.068;14.452;2023-07-08T01:10:41;718.65;;;655.47;;
43114;SDS011;28727;50.068;14.452;2023-07-08T01:13:18;718.25;;;655.22;;
43114;SDS011;28727;50.068;14.452;2023-07-08T01:15:53;716.40;;;653.38;;
43114;SDS011;28727;50.068;14.452;2023-07-08T01:18:26;718.10;;;655.10;;
43114;SDS011;28727;50.068;14.452;2023-07-08T01:21:01;726.53;;;663.22;;
43114;SDS011;28727;50.068;14.452;2023-07-08T01:23:36;722.90;;;659.88;;
43114;SDS011;28727;50.068;14.452;2023-07-08T01:26:08;726.33;;;662.90;;
43114;SDS011;28727;50.068;14.452;2023-07-08T01:28:40;727.80;;;664.65;;
43114;SDS011;28727;50.068;14.452;2023-07-08T01:31:11;723.70;;;660.58;;
43114;SDS011;28727;50.068;14.452;2023-07-08T01:33:45;715.58;;;652.85;;
43114;SDS011;28727;50.068;14.452;2023-07-08T01:36:17;711.10;;;648.47;;
43114;SDS011;28727;50.068;14.452;2023-07-08T01:38:51;718.37;;;655.00;;
43114;SDS011;28727;50.068;14.452;2023-07-08T01:41:23;725.45;;;661.88;;
43114;SDS011;28727;50.068;14.452;2023-07-08T01:43:55;714.78;;;651.63;;
43114;SDS011;28727;50.068;14.452;2023-07-08T01:46:27;700.10;;;637.90;;
43114;SDS011;28727;50.068;14.452;2023-07-08T01:48:59;720.65;;;657.70;;
43114;SDS011;28727;50.068;14.452;2023-07-08T01:51:35;724.55;;;661.30;;
43114;SDS011;28727;50.068;14.452;2023-07-08T01:54:07;709.55;;;646.83;;
43114;SDS011;28727;50.068;14.452;2023-07-08T01:56:39;716.55;;;653.67;;
43114;SDS011;28727;50.068;14.452;2023-07-08T01:59:11;721.00;;;657.83;;
43114;SDS011;28727;50.068;14.452;2023-07-08T02:01:43;715.10;;;652.20;;
43114;SDS011;28727;50.068;14.452;2023-07-08T02:04:15;710.60;;;647.50;;
43114;SDS011;28727;50.068;14.452;2023-07-08T02:06:56;713.42;;;650.53;;
43114;SDS011;28727;50.068;14.452;2023-07-08T02:09:29;716.22;;;653.30;;
43114;SDS011;28727;50.068;14.452;2023-07-08T02:12:01;703.40;;;641.00;;
43114;SDS011;28727;50.068;14.452;2023-07-08T02:14:33;710.75;;;648.20;;
43114;SDS011;28727;50.068;14.452;2023-07-08T02:17:05;716.15;;;653.33;;
43114;SDS011;28727;50.068;14.452;2023-07-08T02:19:37;709.03;;;646.28;;
43114;SDS011;28727;50.068;14.452;2023-07-08T02:22:09;714.60;;;651.75;;
43114;SDS011;28727;50.068;14.452;2023-07-08T02:24:41;707.72;;;645.20;;
43114;SDS011;28727;50.068;14.452;2023-07-08T02:27:14;716.53;;;653.67;;
43114;SDS011;28727;50.068;14.452;2023-07-08T02:29:46;720.55;;;657.20;;
43114;SDS011;28727;50.068;14.452;2023-07-08T02:32:18;718.60;;;655.75;;
43114;SDS011;28727;50.068;14.452;2023-07-08T02:34:50;712.70;;;650.05;;
43114;SDS011;28727;50.068;14.452;2023-07-08T02:37:23;712.10;;;649.15;;
43114;SDS011;28727;50.068;14.452;2023-07-08T02:39:56;702.25;;;639.83;;
43114;SDS011;28727;50.068;14.452;2023-07-08T02:42:28;707.03;;;644.38;;
43114;SDS011;28727;50.068;14.452;2023-07-08T02:45:00;676.53;;;621.42;;
43114;SDS011;28727;50.068;14.452;2023-07-08T02:47:31;674.63;;;619.90;;
43114;SDS011;28727;50.068;14.452;2023-07-08T02:50:04;678.03;;;622.75;;
43114;SDS011;28727;50.068;14.452;2023-07-08T02:52:36;652.83;;;600.58;;
43114;SDS011;28727;50.068;14.452;2023-07-08T02:55:11;670.58;;;616.15;;
43114;SDS011;28727;50.068;14.452;2023-07-08T02:57:42;664.65;;;610.78;;
43114;SDS011;28727;50.068;14.452;2023-07-08T03:00:14;625.88;;;575.55;;
43114;SDS011;28727;50.068;14.452;2023-07-08T03:02:49;618.00;;;568.05;;
43114;SDS011;28727;50.068;14.452;2023-07-08T03:05:21;646.67;;;595.15;;
43114;SDS011;28727;50.068;14.452;2023-07-08T03:07:56;649.58;;;597.30;;
43114;SDS011;28727;50.068;14.452;2023-07-08T03:10:27;578.28;;;530.92;;
43114;SDS011;28727;50.068;14.452;2023-07-08T03:13:06;619.33;;;569.40;;
43114;SDS011;28727;50.068;14.452;2023-07-08T03:15:38;634.47;;;583.35;;
43114;SDS011;28727;50.068;14.452;2023-07-08T03:18:10;655.35;;;602.42;;
43114;SDS011;28727;50.068;14.452;2023-07-08T03:20:42;641.38;;;589.90;;
43114;SDS011;28727;50.068;14.452;2023-07-08T03:23:17;632.38;;;582.13;;
43114;SDS011;28727;50.068;14.452;2023-07-08T03:25:50;643.22;;;591.03;;
43114;SDS011;28727;50.068;14.452;2023-07-08T03:28:24;656.22;;;603.13;;
43114;SDS011;28727;50.068;14.452;2023-07-08T03:30:57;652.05;;;599.15;;
43114;SDS011;28727;50.068;14.452;2023-07-08T03:33:29;629.88;;;579.40;;
43114;SDS011;28727;50.068;14.452;2023-07-08T03:36:01;627.30;;;577.00;;
43114;SDS011;28727;50.068;14.452;2023-07-08T03:38:34;629.50;;;578.67;;
43114;SDS011;28727;50.068;14.452;2023-07-08T03:41:06;620.40;;;570.58;;
43114;SDS011;28727;50.068;14.452;2023-07-08T03:43:38;620.10;;;569.90;;
43114;SDS011;28727;50.068;14.452;2023-07-08T03:46:10;459.38;;;419.48;;
43114;SDS011;28727;50.068;14.452;2023-07-08T03:48:43;517.77;;;474.10;;
43114;SDS011;28727;50.068;14.452;2023-07-08T03:51:22;536.72;;;491.42;;
43114;SDS011;28727;50.068;14.452;2023-07-08T03:53:56;552.05;;;505.70;;
43114;SDS011;28727;50.068;14.452;2023-07-08T03:56:28;540.38;;;494.70;;
43114;SDS011;28727;50.068;14.452;2023-07-08T03:59:01;488.92;;;447.02;;
43114;SDS011;28727;50.068;14.452;2023-07-08T04:01:36;461.15;;;421.27;;
43114;SDS011;28727;50.068;14.452;2023-07-08T04:04:11;529.13;;;484.50;;
43114;SDS011;28727;50.068;14.452;2023-07-08T04:06:44;512.05;;;468.17;;
43114;SDS011;28727;50.068;14.452;2023-07-08T04:09:17;466.77;;;426.17;;
43114;SDS011;28727;50.068;14.452;2023-07-08T04:11:53;447.70;;;408.73;;
43114;SDS011;28727;50.068;14.452;2023-07-08T04:14:25;438.33;;;400.02;;
43114;SDS011;28727;50.068;14.452;2023-07-08T04:16:58;421.27;;;384.23;;
43114;SDS011;28727;50.068;14.452;2023-07-08T04:19:30;421.95;;;384.98;;
43114;SDS011;28727;50.068;14.452;2023-07-08T04:22:07;454.70;;;415.58;;
43114;SDS011;28727;50.068;14.452;2023-07-08T04:24:40;588.42;;;540.08;;
43114;SDS011;28727;50.068;14.452;2023-07-08T04:27:13;470.27;;;429.55;;
43114;SDS011;28727;50.068;14.452;2023-07-08T04:29:47;485.40;;;443.10;;
43114;SDS011;28727;50.068;14.452;2023-07-08T04:32:20;476.80;;;435.58;;
43114;SDS011;28727;50.068;14.452;2023-07-08T04:34:56;508.38;;;465.08;;
43114;SDS011;28727;50.068;14.452;2023-07-08T04:37:28;553.78;;;507.42;;
43114;SDS011;28727;50.068;14.452;2023-07-08T04:40:00;525.05;;;480.50;;
43114;SDS011;28727;50.068;14.452;2023-07-08T04:42:32;565.38;;;518.67;;
43114;SDS011;28727;50.068;14.452;2023-07-08T04:45:06;569.50;;;522.10;;
43114;SDS011;28727;50.068;14.452;2023-07-08T04:47:38;463.25;;;423.60;;
43114;SDS011;28727;50.068;14.452;2023-07-08T04:50:10;444.27;;;405.58;;
43114;SDS011;28727;50.068;14.452;2023-07-08T04:52:42;457.30;;;417.67;;
43114;SDS011;28727;50.068;14.452;2023-07-08T04:55:14;496.00;;;453.60;;
43114;SDS011;28727;50.068;14.452;2023-07-08T04:57:46;517.53;;;473.65;;
43114;SDS011;28727;50.068;14.452;2023-07-08T05:00:18;588.05;;;539.80;;
43114;SDS011;28727;50.068;14.452;2023-07-08T05:02:51;602.22;;;553.35;;
43114;SDS011;28727;50.068;14.452;2023-07-08T05:05:25;585.25;;;537.33;;
43114;SDS011;28727;50.068;14.452;2023-07-08T05:07:57;564.03;;;517.05;;
43114;SDS011;28727;50.068;14.452;2023-07-08T05:10:29;585.03;;;536.92;;
43114;SDS011;28727;50.068;14.452;2023-07-08T05:13:01;567.83;;;520.92;;
43114;SDS011;28727;50.068;14.452;2023-07-08T05:15:33;525.90;;;480.77;;
43114;SDS011;28727;50.068;14.452;2023-07-08T05:18:06;496.33;;;454.20;;
43114;SDS011;28727;50.068;14.452;2023-07-08T05:20:38;483.85;;;441.98;;
43114;SDS011;28727;50.068;14.452;2023-07-08T05:23:10;461.48;;;421.20;;
43114;SDS011;28727;50.068;14.452;2023-07-08T05:25:42;462.58;;;422.65;;
43114;SDS011;28727;50.068;14.452;2023-07-08T05:28:14;441.67;;;403.17;;
43114;SDS011;28727;50.068;14.452;2023-07-08T05:30:46;452.80;;;412.98;;
43114;SDS011;28727;50.068;14.452;2023-07-08T05:33:18;431.35;;;393.27;;
43114;SDS011;28727;50.068;14.452;2023-07-08T05:35:51;463.90;;;423.95;;
43114;SDS011;28727;50.068;14.452;2023-07-08T05:38:24;523.30;;;478.63;;
43114;SDS011;28727;50.068;14.452;2023-07-08T05:40:57;631.22;;;580.40;;
43114;SDS011;28727;50.068;14.452;2023-07-08T05:43:31;626.65;;;576.53;;
43114;SDS011;28727;50.068;14.452;2023-07-08T05:46:02;605.67;;;556.35;;
43114;SDS011;28727;50.068;14.452;2023-07-08T05:48:42;686.47;;;632.50;;
43114;SDS011;28727;50.068;14.452;2023-07-08T05:51:17;611.13;;;561.80;;
43114;SDS011;28727;50.068;14.452;2023-07-08T05:53:49;590.75;;;542.22;;
43114;SDS011;28727;50.068;14.452;2023-07-08T05:56:21;637.25;;;586.25;;
43114;SDS011;28727;50.068;14.452;2023-07-08T05:58:53;666.40;;;613.20;;
43114;SDS011;28727;50.068;14.452;2023-07-08T06:01:26;710.60;;;655.08;;
43114;SDS011;28727;50.068;14.452;2023-07-08T06:03:59;648.95;;;597.47;;
43114;SDS011;28727;50.068;14.452;2023-07-08T06:06:31;723.00;;;666.22;;
43114;SDS011;28727;50.068;14.452;2023-07-08T06:09:03;713.15;;;657.20;;
43114;SDS011;28727;50.068;14.452;2023-07-08T06:11:35;695.92;;;641.67;;
43114;SDS011;28727;50.068;14.452;2023-07-08T06:14:07;666.83;;;613.83;;
43114;SDS011;28727;50.068;14.452;2023-07-08T06:16:39;650.00;;;598.33;;
43114;SDS011;28727;50.068;14.452;2023-07-08T06:19:15;694.75;;;640.40;;
43114;SDS011;28727;50.068;14.452;2023-07-08T06:21:48;702.65;;;647.67;;
43114;SDS011;28727;50.068;14.452;2023-07-08T06:24:20;650.38;;;598.53;;
43114;SDS011;28727;50.068;14.452;2023-07-08T06:26:52;644.33;;;592.92;;
43114;SDS011;28727;50.068;14.452;2023-07-08T06:29:27;654.90;;;603.08;;
43114;SDS011;28727;50.068;14.452;2023-07-08T06:31:59;637.63;;;586.30;;
43114;SDS011;28727;50.068;14.452;2023-07-08T06:34:31;651.10;;;599.60;;
43114;SDS011;28727;50.068;14.452;2023-07-08T06:37:03;668.05;;;615.03;;
43114;SDS011;28727;50.068;14.452;2023-07-08T06:39:36;736.38;;;679.83;;
43114;SDS011;28727;50.068;14.452;2023-07-08T06:44:47;752.92;;;695.30;;
43114;SDS011;28727;50.068;14.452;2023-07-08T06:47:27;767.85;;;709.00;;
43114;SDS011;28727;50.068;14.452;2023-07-08T06:49:58;741.53;;;684.25;;
43114;SDS011;28727;50.068;14.452;2023-07-08T06:52:30;792.90;;;731.35;;
43114;SDS011;28727;50.068;14.452;2023-07-08T06:55:07;787.45;;;727.03;;
43114;SDS011;28727;50.068;14.452;2023-07-08T06:57:40;803.00;;;739.97;;
43114;SDS011;28727;50.068;14.452;2023-07-08T07:00:12;798.00;;;737.05;;
43114;SDS011;28727;50.068;14.452;2023-07-08T07:02:45;809.67;;;746.30;;
43114;SDS011;28727;50.068;14.452;2023-07-08T07:05:17;811.08;;;746.70;;
43114;SDS011;28727;50.068;14.452;2023-07-08T07:07:52;813.47;;;748.95;;
43114;SDS011;28727;50.068;14.452;2023-07-08T07:10:24;819.08;;;753.88;;
43114;SDS011;28727;50.068;14.452;2023-07-08T07:12:57;816.65;;;753.70;;
43114;SDS011;28727;50.068;14.452;2023-07-08T07:15:29;821.78;;;756.40;;
43114;SDS011;28727;50.068;14.452;2023-07-08T07:18:06;823.38;;;759.00;;
43114;SDS011;28727;50.068;14.452;2023-07-08T07:20:38;815.88;;;753.40;;
43114;SDS011;28727;50.068;14.452;2023-07-08T07:23:10;839.65;;;773.72;;
43114;SDS011;28727;50.068;14.452;2023-07-08T07:25:42;830.70;;;765.17;;
43114;SDS011;28727;50.068;14.452;2023-07-08T07:28:14;817.45;;;754.30;;
43114;SDS011;28727;50.068;14.452;2023-07-08T07:33:27;826.10;;;762.38;;
43114;SDS011;28727;50.068;14.452;2023-07-08T07:36:02;832.05;;;767.47;;
43114;SDS011;28727;50.068;14.452;2023-07-08T07:38:34;828.65;;;764.88;;
43114;SDS011;28727;50.068;14.452;2023-07-08T07:41:05;843.10;;;776.55;;
43114;SDS011;28727;50.068;14.452;2023-07-08T07:43:38;844.92;;;778.13;;
43114;SDS011;28727;50.068;14.452;2023-07-08T07:46:10;844.53;;;778.15;;
43114;SDS011;28727;50.068;14.452;2023-07-08T07:48:42;854.53;;;787.45;;
43114;SDS011;28727;50.068;14.452;2023-07-08T07:51:14;849.95;;;784.15;;
43114;SDS011;28727;50.068;14.452;2023-07-08T07:53:47;855.05;;;787.45;;
43114;SDS011;28727;50.068;14.452;2023-07-08T07:56:18;856.45;;;787.38;;
43114;SDS011;28727;50.068;14.452;2023-07-08T07:58:50;850.42;;;782.63;;
43114;SDS011;28727;50.068;14.452;2023-07-08T08:01:22;854.70;;;786.60;;
43114;SDS011;28727;50.068;14.452;2023-07-08T08:03:54;861.28;;;792.97;;
43114;SDS011;28727;50.068;14.452;2023-07-08T08:06:26;861.78;;;793.08;;
43114;SDS011;28727;50.068;14.452;2023-07-08T08:08:57;859.67;;;789.90;;
43114;SDS011;28727;50.068;14.452;2023-07-08T08:11:29;858.53;;;789.15;;
43114;SDS011;28727;50.068;14.452;2023-07-08T08:14:02;860.28;;;790.50;;
43114;SDS011;28727;50.068;14.452;2023-07-08T08:16:35;865.90;;;795.60;;
43114;SDS011;28727;50.068;14.452;2023-07-08T08:19:07;866.67;;;796.17;;
43114;SDS011;28727;50.068;14.452;2023-07-08T08:21:39;865.83;;;796.80;;
43114;SDS011;28727;50.068;14.452;2023-07-08T08:24:11;865.83;;;796.35;;
43114;SDS011;28727;50.068;14.452;2023-07-08T08:26:43;872.20;;;801.20;;
43114;SDS011;28727;50.068;14.452;2023-07-08T08:29:15;869.75;;;798.92;;
43114;SDS011;28727;50.068;14.452;2023-07-08T08:31:47;877.03;;;805.97;;
43114;SDS011;28727;50.068;14.452;2023-07-08T08:34:19;878.92;;;807.83;;
43114;SDS011;28727;50.068;14.452;2023-07-08T08:36:52;872.25;;;801.40;;
43114;SDS011;28727;50.068;14.452;2023-07-08T08:39:27;880.22;;;808.90;;
43114;SDS011;28727;50.068;14.452;2023-07-08T08:42:00;868.53;;;797.78;;
43114;SDS011;28727;50.068;14.452;2023-07-08T08:44:34;868.97;;;798.60;;
43114;SDS011;28727;50.068;14.452;2023-07-08T08:47:11;870.67;;;800.20;;
43114;SDS011;28727;50.068;14.452;2023-07-08T08:50:18;872.20;;;801.80;;
43114;SDS011;28727;50.068;14.452;2023-07-08T08:52:59;879.25;;;808.55;;
43114;SDS011;28727;50.068;14.452;2023-07-08T08:55:33;879.33;;;809.90;;
43114;SDS011;28727;50.068;14.452;2023-07-08T09:01:28;881.97;;;812.05;;
43114;SDS011;28727;50.068;14.452;2023-07-08T09:04:05;886.53;;;816.05;;
43114;SDS011;28727;50.068;14.452;2023-07-08T09:06:40;885.85;;;814.90;;
43114;SDS011;28727;50.068;14.452;2023-07-08T09:09:14;884.67;;;813.95;;
43114;SDS011;28727;50.068;14.452;2023-07-08T09:14:58;894.28;;;823.05;;
43114;SDS011;28727;50.068;14.452;2023-07-08T09:17:31;892.75;;;821.60;;
43114;SDS011;28727;50.068;14.452;2023-07-08T09:20:27;891.42;;;820.20;;
43114;SDS011;28727;50.068;14.452;2023-07-08T09:23:17;893.33;;;821.88;;
43114;SDS011;28727;50.068;14.452;2023-07-08T09:28:40;885.15;;;815.55;;
43114;SDS011;28727;50.068;14.452;2023-07-08T09:31:32;895.60;;;824.97;;
43114;SDS011;28727;50.068;14.452;2023-07-08T09:34:14;891.08;;;821.08;;
43114;SDS011;28727;50.068;14.452;2023-07-08T09:36:48;887.88;;;818.97;;
43114;SDS011;28727;50.068;14.452;2023-07-08T09:39:20;900.45;;;831.40;;
43114;SDS011;28727;50.068;14.452;2023-07-08T09:41:53;897.95;;;828.28;;
43114;SDS011;28727;50.068;14.452;2023-07-08T09:44:26;898.95;;;829.83;;
43114;SDS011;28727;50.068;14.452;2023-07-08T09:47:08;896.95;;;827.88;;
43114;SDS011;28727;50.068;14.452;2023-07-08T09:49:54;894.67;;;827.08;;
43114;SDS011;28727;50.068;14.452;2023-07-08T09:52:26;888.55;;;821.33;;
43114;SDS011;28727;50.068;14.452;2023-07-08T09:55:01;886.92;;;819.35;;
43114;SDS011;28727;50.068;14.452;2023-07-08T09:57:32;893.15;;;824.55;;
43114;SDS011;28727;50.068;14.452;2023-07-08T10:00:07;890.53;;;822.28;;
43114;SDS011;28727;50.068;14.452;2023-07-08T10:05:35;895.42;;;826.97;;
43114;SDS011;28727;50.068;14.452;2023-07-08T10:08:15;889.45;;;821.22;;
43114;SDS011;28727;50.068;14.452;2023-07-08T10:11:00;897.92;;;828.65;;
43114;SDS011;28727;50.068;14.452;2023-07-08T10:13:42;890.15;;;822.40;;
43114;SDS011;28727;50.068;14.452;2023-07-08T10:16:31;890.78;;;823.08;;
43114;SDS011;28727;50.068;14.452;2023-07-08T10:19:12;888.53;;;821.35;;
43114;SDS011;28727;50.068;14.452;2023-07-08T10:27:35;893.50;;;825.13;;
43114;SDS011;28727;50.068;14.452;2023-07-08T10:30:11;893.38;;;825.17;;
43114;SDS011;28727;50.068;14.452;2023-07-08T10:44:54;888.55;;;820.80;;
43114;SDS011;28727;50.068;14.452;2023-07-08T10:47:51;883.28;;;815.45;;
43114;SDS011;28727;50.068;14.452;2023-07-08T10:50:54;885.00;;;817.00;;
43114;SDS011;28727;50.068;14.452;2023-07-08T10:56:40;880.55;;;811.40;;
43114;SDS011;28727;50.068;14.452;2023-07-08T11:02:45;886.25;;;816.65;;
43114;SDS011;28727;50.068;14.452;2023-07-08T11:05:42;886.22;;;816.63;;
43114;SDS011;28727;50.068;14.452;2023-07-08T11:08:22;886.53;;;816.45;;
43114;SDS011;28727;50.068;14.452;2023-07-08T11:11:03;890.13;;;819.95;;
43114;SDS011;28727;50.068;14.452;2023-07-08T11:13:51;887.42;;;816.70;;
43114;SDS011;28727;50.068;14.452;2023-07-08T11:16:30;881.85;;;811.80;;
43114;SDS011;28727;50.068;14.452;2023-07-08T11:21:51;884.20;;;814.15;;
43114;SDS011;28727;50.068;14.452;2023-07-08T11:30:17;877.95;;;809.03;;
43114;SDS011;28727;50.068;14.452;2023-07-08T11:33:03;884.30;;;814.35;;
43114;SDS011;28727;50.068;14.452;2023-07-08T11:35:48;878.75;;;809.15;;
43114;SDS011;28727;50.068;14.452;2023-07-08T11:38:24;882.53;;;812.63;;
43114;SDS011;28727;50.068;14.452;2023-07-08T11:44:03;878.85;;;809.60;;
43114;SDS011;28727;50.068;14.452;2023-07-08T11:46:29;883.28;;;814.05;;
43114;SDS011;28727;50.068;14.452;2023-07-08T11:49:12;884.95;;;815.70;;
43114;SDS011;28727;50.068;14.452;2023-07-08T11:51:45;888.75;;;819.28;;
43114;SDS011;28727;50.068;14.452;2023-07-08T11:57:06;893.25;;;822.42;;
43114;SDS011;28727;50.068;14.452;2023-07-08T11:59:40;887.08;;;816.90;;
43114;SDS011;28727;50.068;14.452;2023-07-08T12:02:16;889.95;;;819.53;;
43114;SDS011;28727;50.068;14.452;2023-07-08T12:05:00;888.20;;;818.25;;
43114;SDS011;28727;50.068;14.452;2023-07-08T12:07:46;892.00;;;821.75;;
43114;SDS011;28727;50.068;14.452;2023-07-08T12:10:27;887.58;;;818.58;;
43114;SDS011;28727;50.068;14.452;2023-07-08T12:13:11;889.17;;;819.20;;
43114;SDS011;28727;50.068;14.452;2023-07-08T12:15:53;889.35;;;820.03;;
43114;SDS011;28727;50.068;14.452;2023-07-08T12:18:27;892.42;;;822.60;;
43114;SDS011;28727;50.068;14.452;2023-07-08T12:21:07;895.28;;;824.60;;
43114;SDS011;28727;50.068;14.452;2023-07-08T12:23:46;893.90;;;823.50;;
43114;SDS011;28727;50.068;14.452;2023-07-08T12:26:19;897.47;;;827.08;;
43114;SDS011;28727;50.068;14.452;2023-07-08T12:28:57;896.35;;;825.88;;
43114;SDS011;28727;50.068;14.452;2023-07-08T12:31:29;893.05;;;822.85;;
43114;SDS011;28727;50.068;14.452;2023-07-08T12:34:03;898.00;;;827.30;;
43114;SDS011;28727;50.068;14.452;2023-07-08T12:36:37;892.17;;;821.80;;
43114;SDS011;28727;50.068;14.452;2023-07-08T12:39:10;894.83;;;824.08;;
43114;SDS011;28727;50.068;14.452;2023-07-08T12:41:46;894.50;;;823.78;;
43114;SDS011;28727;50.068;14.452;2023-07-08T12:44:20;896.47;;;825.78;;
43114;SDS011;28727;50.068;14.452;2023-07-08T12:47:00;888.85;;;819.17;;
43114;SDS011;28727;50.068;14.452;2023-07-08T12:49:34;887.78;;;818.10;;
43114;SDS011;28727;50.068;14.452;2023-07-08T12:52:17;887.78;;;817.33;;
43114;SDS011;28727;50.068;14.452;2023-07-08T12:54:53;885.58;;;816.08;;
43114;SDS011;28727;50.068;14.452;2023-07-08T12:57:25;878.75;;;810.28;;
43114;SDS011;28727;50.068;14.452;2023-07-08T12:59:57;888.97;;;819.13;;
43114;SDS011;28727;50.068;14.452;2023-07-08T13:02:30;886.40;;;817.03;;
43114;SDS011;28727;50.068;14.452;2023-07-08T13:07:36;877.97;;;808.95;;
43114;SDS011;28727;50.068;14.452;2023-07-08T13:10:19;884.35;;;814.08;;
43114;SDS011;28727;50.068;14.452;2023-07-08T13:13:00;881.97;;;811.75;;
43114;SDS011;28727;50.068;14.452;2023-07-08T13:15:39;883.95;;;814.00;;
43114;SDS011;28727;50.068;14.452;2023-07-08T13:18:16;884.85;;;814.95;;
43114;SDS011;28727;50.068;14.452;2023-07-08T13:20:51;883.28;;;813.13;;
43114;SDS011;28727;50.068;14.452;2023-07-08T13:23:25;884.28;;;814.88;;
43114;SDS011;28727;50.068;14.452;2023-07-08T13:26:11;884.13;;;813.80;;
43114;SDS011;28727;50.068;14.452;2023-07-08T13:28:45;880.97;;;811.22;;
43114;SDS011;28727;50.068;14.452;2023-07-08T13:31:19;877.72;;;807.90;;
43114;SDS011;28727;50.068;14.452;2023-07-08T13:33:56;884.47;;;813.58;;
43114;SDS011;28727;50.068;14.452;2023-07-08T13:36:32;878.42;;;808.17;;
43114;SDS011;28727;50.068;14.452;2023-07-08T13:39:07;884.20;;;813.88;;
43114;SDS011;28727;50.068;14.452;2023-07-08T13:41:44;887.50;;;816.28;;
43114;SDS011;28727;50.068;14.452;2023-07-08T13:44:16;880.03;;;809.80;;
43114;SDS011;28727;50.068;14.452;2023-07-08T13:46:56;883.97;;;813.47;;
43114;SDS011;28727;50.068;14.452;2023-07-08T13:49:39;880.83;;;810.47;;
43114;SDS011;28727;50.068;14.452;2023-07-08T13:52:16;882.35;;;811.65;;
43114;SDS011;28727;50.068;14.452;2023-07-08T13:54:52;883.80;;;813.70;;
43114;SDS011;28727;50.068;14.452;2023-07-08T13:57:33;886.83;;;816.05;;
43114;SDS011;28727;50.068;14.452;2023-07-08T14:00:08;877.30;;;807.00;;
43114;SDS011;28727;50.068;14.452;2023-07-08T14:02:46;877.83;;;807.65;;
43114;SDS011;28727;50.068;14.452;2023-07-08T14:05:18;885.15;;;814.33;;
43114;SDS011;28727;50.068;14.452;2023-07-08T14:07:53;881.53;;;811.20;;
43114;SDS011;28727;50.068;14.452;2023-07-08T14:10:25;880.28;;;809.90;;
43114;SDS011;28727;50.068;14.452;2023-07-08T14:12:57;882.08;;;811.63;;
43114;SDS011;28727;50.068;14.452;2023-07-08T14:15:29;882.70;;;812.00;;
43114;SDS011;28727;50.068;14.452;2023-07-08T14:18:01;885.08;;;814.17;;
43114;SDS011;28727;50.068;14.452;2023-07-08T14:20:34;886.10;;;815.45;;
43114;SDS011;28727;50.068;14.452;2023-07-08T14:23:07;881.90;;;811.03;;
43114;SDS011;28727;50.068;14.452;2023-07-08T14:25:39;880.20;;;809.58;;
43114;SDS011;28727;50.068;14.452;2023-07-08T14:28:12;883.63;;;812.92;;
43114;SDS011;28727;50.068;14.452;2023-07-08T14:30:44;881.97;;;811.58;;
43114;SDS011;28727;50.068;14.452;2023-07-08T14:33:19;878.30;;;808.20;;
43114;SDS011;28727;50.068;14.452;2023-07-08T14:35:51;882.30;;;812.00;;
43114;SDS011;28727;50.068;14.452;2023-07-08T14:38:22;887.60;;;816.72;;
43114;SDS011;28727;50.068;14.452;2023-07-08T14:40:54;893.13;;;822.22;;
43114;SDS011;28727;50.068;14.452;2023-07-08T14:43:30;882.30;;;811.95;;
43114;SDS011;28727;50.068;14.452;2023-07-08T14:46:04;882.65;;;812.15;;
43114;SDS011;28727;50.068;14.452;2023-07-08T14:48:37;882.35;;;811.72;;
43114;SDS011;28727;50.068;14.452;2023-07-08T14:51:09;882.30;;;811.83;;
43114;SDS011;28727;50.068;14.452;2023-07-08T14:53:41;873.20;;;803.10;;
43114;SDS011;28727;50.068;14.452;2023-07-08T14:56:14;873.30;;;803.42;;
43114;SDS011;28727;50.068;14.452;2023-07-08T14:58:47;883.00;;;812.33;;
43114;SDS011;28727;50.068;14.452;2023-07-08T15:01:19;881.53;;;811.00;;
43114;SDS011;28727;50.068;14.452;2023-07-08T15:03:52;877.92;;;807.80;;
43114;SDS011;28727;50.068;14.452;2023-07-08T15:06:24;883.33;;;812.60;;
43114;SDS011;28727;50.068;14.452;2023-07-08T15:08:56;884.45;;;813.88;;
43114;SDS011;28727;50.068;14.452;2023-07-08T15:11:28;881.72;;;811.33;;
43114;SDS011;28727;50.068;14.452;2023-07-08T15:14:03;881.08;;;810.40;;
43114;SDS011;28727;50.068;14.452;2023-07-08T15:16:41;881.72;;;811.30;;
43114;SDS011;28727;50.068;14.452;2023-07-08T15:19:13;878.58;;;808.40;;
43114;SDS011;28727;50.068;14.452;2023-07-08T15:21:46;882.10;;;811.42;;
43114;SDS011;28727;50.068;14.452;2023-07-08T15:24:18;883.00;;;812.70;;
43114;SDS011;28727;50.068;14.452;2023-07-08T15:26:52;878.45;;;808.30;;
43114;SDS011;28727;50.068;14.452;2023-07-08T15:29:24;881.13;;;810.90;;